Flight Track Log - Related Links

Times and Time Zones

All times are in EDT time to prevent confusion due to time zone crossing. See the N502QS flight status page for this flight to view local times or setup timezone preferences in your user account.

Time Position Orientation Groundspeed Altitude Reporting Facility
EDT Latitude Longitude Course Direction KTS MPH feet Rate Location/Type
Wed 12:19:52 PM 34.1500 -118.4667 140° Southeast 209 241 2,500  Level Southern California TRACON
Wed 12:20:52 PM 34.1333 -118.3833 104° East 258 297 6,300 3,200 Climbing Southern California TRACON
Wed 12:21:52 PM 34.1333 -118.3000 90° East 295 339 8,900 1,350 Climbing Southern California TRACON
Wed 12:22:52 PM 34.0833 -118.2333 132° Southeast 273 314 9,000 66 Climbing Southern California TRACON
Wed 12:23:23 PM 34.0539 -118.2167 155° Southeast 287 330 9,000 -387 Level Los Angeles Center
Wed 12:24:25 PM 33.9767 -118.2075 174° South 277 319 8,400 -677 Descending Los Angeles Center
Wed 12:25:00 PM 33.9488 -118.1822 140° Southeast  Level FlightAware Approximate
Wed 12:25:27 PM 33.9036 -118.1967 173° South 268 308 7,600  Level Los Angeles Center
Wed 12:26:41 PM 33.8300 -118.2200 195° South 271 312 7,000 -876 Descending Los Angeles Center
Wed 12:27:44 PM 33.7442 -118.1969 167° South 262 302 5,600 -960 Descending Los Angeles Center
Wed 12:28:46 PM 33.7008 -118.1133 122° Southeast 262 302 5,000 -277 Descending Los Angeles Center
Wed 12:29:54 PM 33.7000 -118.0167 91° East 255 293 5,000  Level Southern California TRACON
Wed 12:30:54 PM 33.7167 -117.9500 73° East 229 264 5,000 -198 Level Southern California TRACON
Wed 12:31:55 PM 33.7667 -117.9000 40° Northeast 231 266 4,600 -942 Descending Southern California TRACON
Wed 12:32:55 PM 33.8167 -117.8667 29° Northeast 224 258 3,100 -762 Descending Southern California TRACON
Wed 12:34:01 PM 33.8667 -117.8167 40° Northeast 207 238 3,000 -48 Descending Southern California TRACON
Wed 12:35:01 PM 33.8500 -117.7667 112° Southeast 178 205 3,000 -99 Level Southern California TRACON
Wed 12:36:02 PM 33.8167 -117.7833 203° Southwest 168 193 2,800 -446 Descending Southern California TRACON
Wed 12:37:02 PM 33.7833 -117.8000 203° Southwest 123 142 2,100 -650 Descending Southern California TRACON
Wed 12:38:02 PM 33.7500 -117.8167 203° Southwest 138 159 1,500 -650 Descending Southern California TRACON
Wed 12:39:02 PM 33.7167 -117.8500 220° Southwest 139 160 800 -700 Descending Southern California TRACON

Login

Don't have an account? Register now (free) for customized features, flight alerts, and more!